Time;durP1;ratioP1;P1;durP2;ratioP2;P2;SDS_P1;SDS_P2;PMS_P1;PMS_P2;Temp;Humidity;BMP_temperature;BMP_pressure;BME280_temperature;BME280_humidity;BME280_pressure;Samples;Min_cycle;Max_cycle;Signal;HPM_P1;HPM_P2
2022/12/14 00:01:59;;;;;;;47.47;22.43;;;5.30;85.80;;;;;;6150938;23;20550;-78
2022/12/14 00:04:27;;;;;;;45.33;22.63;;;5.20;85.60;;;;;;6149428;23;20547;-78
2022/12/14 00:06:55;;;;;;;43.90;21.73;;;5.20;85.50;;;;;;6151546;23;20201;-78
2022/12/14 00:09:25;;;;;;;47.50;22.40;;;5.20;85.50;;;;;;6151202;23;20177;-78
2022/12/14 00:11:53;;;;;;;50.37;23.60;;;5.20;85.60;;;;;;6151911;23;20649;-79
2022/12/14 00:14:22;;;;;;;47.10;23.00;;;5.20;85.60;;;;;;6150906;23;20180;-78
2022/12/14 00:16:50;;;;;;;48.97;23.13;;;5.10;85.50;;;;;;6153738;23;20193;-79
2022/12/14 00:19:19;;;;;;;47.83;22.90;;;5.10;85.50;;;;;;6151540;23;20184;-78
2022/12/14 00:21:47;;;;;;;49.20;22.50;;;5.10;85.50;;;;;;6150441;23;20545;-79
2022/12/14 00:24:15;;;;;;;52.13;24.30;;;5.10;85.50;;;;;;6154850;23;20184;-79
2022/12/14 00:26:45;;;;;;;50.57;23.00;;;5.10;85.50;;;;;;6153276;23;20176;-79
2022/12/14 00:29:13;;;;;;;44.23;23.57;;;5.00;85.50;;;;;;6152867;23;20612;-79
2022/12/14 00:31:41;;;;;;;48.63;22.20;;;5.00;85.50;;;;;;6154008;23;20223;-79
2022/12/14 00:34:15;;;;;;;45.80;21.53;;;5.00;85.50;;;;;;6153612;23;20165;-78
2022/12/14 00:36:44;;;;;;;43.30;21.43;;;5.00;85.50;;;;;;6155638;23;20192;-78
2022/12/14 00:39:12;;;;;;;41.97;20.83;;;4.90;85.50;;;;;;6151222;23;20641;-78
2022/12/14 00:41:40;;;;;;;40.37;19.93;;;5.00;85.50;;;;;;6151694;23;20176;-79
2022/12/14 00:44:10;;;;;;;43.73;20.37;;;4.90;85.40;;;;;;6151670;23;20515;-78
2022/12/14 00:46:38;;;;;;;39.70;19.53;;;4.90;85.40;;;;;;6151648;23;20175;-78
2022/12/14 00:49:07;;;;;;;43.27;20.60;;;4.90;85.40;;;;;;6153370;23;20638;-78
2022/12/14 00:51:36;;;;;;;41.00;18.03;;;4.90;85.40;;;;;;6153679;23;20173;-78
2022/12/14 00:54:04;;;;;;;54.07;21.37;;;4.90;85.40;;;;;;6153535;23;20176;-78
2022/12/14 00:56:33;;;;;;;41.90;20.57;;;4.90;85.40;;;;;;6152898;23;20193;-78
2022/12/14 00:59:01;;;;;;;33.37;18.77;;;4.80;85.40;;;;;;6154356;23;20199;-78
2022/12/14 01:01:31;;;;;;;45.22;22.77;;;4.80;85.40;;;;;;6151557;23;20848;-78
2022/12/14 01:06:42;;;;;;;40.97;20.37;;;4.80;85.70;;;;;;6153412;23;20271;-78
2022/12/14 01:09:10;;;;;;;41.40;20.57;;;4.80;85.80;;;;;;6155528;23;20235;-78
2022/12/14 01:11:39;;;;;;;39.50;18.33;;;4.80;85.80;;;;;;6154530;23;20227;-78
2022/12/14 01:14:08;;;;;;;47.35;23.92;;;4.80;85.80;;;;;;6155112;23;20397;-78
2022/12/14 01:16:38;;;;;;;41.60;20.43;;;4.70;86.00;;;;;;6155604;23;20737;-78
2022/12/14 01:19:06;;;;;;;37.13;19.63;;;4.70;86.00;;;;;;6154874;23;20216;-79
2022/12/14 01:21:34;;;;;;;44.20;21.23;;;4.70;86.00;;;;;;6153826;23;20223;-78
2022/12/14 01:24:05;;;;;;;44.07;18.90;;;4.70;86.10;;;;;;6154624;23;20176;-80
2022/12/14 01:26:38;;;;;;;39.60;18.37;;;4.70;86.10;;;;;;6154426;23;20189;-79
2022/12/14 01:29:07;;;;;;;39.50;19.17;;;4.70;86.10;;;;;;6154799;23;20207;-79
2022/12/14 01:31:38;;;;;;;46.40;19.40;;;4.70;86.20;;;;;;6154880;23;20262;-79
2022/12/14 01:34:07;;;;;;;46.17;19.13;;;4.70;86.20;;;;;;6154286;23;20157;-78
2022/12/14 01:36:36;;;;;;;41.40;20.10;;;4.70;86.30;;;;;;6153813;23;20207;-79
2022/12/14 01:39:08;;;;;;;41.53;21.43;;;4.70;86.30;;;;;;6156688;23;20658;-79
2022/12/14 01:41:38;;;;;;;42.00;20.30;;;4.70;86.30;;;;;;6153986;23;20168;-79
2022/12/14 01:44:39;;;;;;;50.57;22.03;;;4.70;86.30;;;;;;6153271;23;20234;-79
2022/12/14 01:47:17;;;;;;;45.13;19.67;;;4.60;86.30;;;;;;6151579;23;20172;-78
2022/12/14 01:49:49;;;;;;;43.00;20.03;;;4.70;86.20;;;;;;6155643;23;20157;-78
2022/12/14 01:52:20;;;;;;;46.22;23.20;;;4.70;86.10;;;;;;6153881;23;20387;-78
2022/12/14 01:54:52;;;;;;;47.20;20.53;;;4.60;86.10;;;;;;6153142;23;20165;-78
2022/12/14 01:57:26;;;;;;;40.17;19.87;;;4.60;86.10;;;;;;6153324;23;20181;-78
2022/12/14 01:59:56;;;;;;;40.10;20.20;;;4.60;86.10;;;;;;6151712;23;20161;-78
2022/12/14 02:02:34;;;;;;;43.80;21.60;;;4.60;86.10;;;;;;6152964;23;20542;-78
2022/12/14 02:05:05;;;;;;;42.83;22.03;;;4.60;86.10;;;;;;6151963;23;20640;-79
2022/12/14 02:07:34;;;;;;;41.50;20.57;;;4.60;86.10;;;;;;6152705;23;20255;-77
2022/12/14 02:10:05;;;;;;;44.87;21.17;;;4.50;86.00;;;;;;6149643;23;20177;-77
2022/12/14 02:12:38;;;;;;;48.30;21.73;;;4.50;86.20;;;;;;6153172;23;20600;-78
2022/12/14 02:15:07;;;;;;;46.63;20.83;;;4.50;86.20;;;;;;6153804;23;20161;-78
2022/12/14 02:17:38;;;;;;;38.58;20.67;;;4.40;86.10;;;;;;6153229;23;20402;-78
2022/12/14 02:20:07;;;;;;;50.50;22.33;;;4.40;86.10;;;;;;6152298;23;20607;-79
2022/12/14 02:23:10;;;;;;;43.77;20.20;;;4.40;86.20;;;;;;6151941;23;20557;-77
2022/12/14 02:26:22;;;;;;;38.57;19.60;;;4.40;86.20;;;;;;6153275;23;20254;-78
2022/12/14 02:29:22;;;;;;;41.90;20.67;;;4.30;86.30;;;;;;6154197;23;20176;-78
2022/12/14 02:31:58;;;;;;;41.53;19.97;;;4.30;86.30;;;;;;6150757;23;20165;-78
2022/12/14 02:34:36;;;;;;;43.93;21.90;;;4.30;86.30;;;;;;6152035;23;20160;-78
2022/12/14 02:37:14;;;;;;;42.73;21.40;;;4.20;86.70;;;;;;6152552;23;20180;-77
2022/12/14 02:39:49;;;;;;;50.70;22.30;;;4.20;86.70;;;;;;6153768;23;20215;-76
2022/12/14 02:42:26;;;;;;;41.20;21.30;;;4.20;86.60;;;;;;6150785;23;20210;-77
2022/12/14 02:45:03;;;;;;;48.20;25.40;;;4.20;86.80;;;;;;6152420;23;20748;-76
2022/12/14 02:47:39;;;;;;;42.73;20.90;;;4.10;87.20;;;;;;6151457;23;20586;-77
2022/12/14 02:50:16;;;;;;;40.67;19.67;;;4.10;87.40;;;;;;6153671;23;20682;-78
2022/12/14 02:52:52;;;;;;;44.33;20.80;;;4.10;87.40;;;;;;6151040;23;20512;-77
2022/12/14 02:55:25;;;;;;;39.60;18.63;;;4.10;87.50;;;;;;6154194;23;20227;-77
2022/12/14 02:58:00;;;;;;;44.90;20.97;;;4.10;87.60;;;;;;6152800;23;20211;-79
2022/12/14 03:00:32;;;;;;;37.60;19.47;;;4.00;88.00;;;;;;6153337;23;20224;-76
2022/12/14 03:03:02;;;;;;;39.97;19.30;;;4.00;88.30;;;;;;6151874;23;20236;-77
2022/12/14 03:05:30;;;;;;;42.80;19.77;;;3.90;88.80;;;;;;6150886;23;20203;-77
2022/12/14 03:08:01;;;;;;;38.23;19.40;;;3.90;88.90;;;;;;6154101;23;20640;-77
2022/12/14 03:10:36;;;;;;;44.08;23.08;;;3.90;89.00;;;;;;6152705;23;20382;-76
2022/12/14 03:13:13;;;;;;;43.07;20.57;;;3.80;89.60;;;;;;6152498;23;20164;-77
2022/12/14 03:15:46;;;;;;;38.67;19.47;;;3.90;89.60;;;;;;6154716;23;20160;-77
2022/12/14 03:18:19;;;;;;;46.93;20.33;;;3.90;89.70;;;;;;6151377;23;20185;-77
2022/12/14 03:20:51;;;;;;;42.30;20.83;;;3.90;89.60;;;;;;6153518;23;20160;-77
2022/12/14 03:23:23;;;;;;;43.87;21.23;;;3.90;89.50;;;;;;6152915;23;20165;-76
2022/12/14 03:25:57;;;;;;;45.03;21.70;;;3.90;89.60;;;;;;6153109;23;20203;-77
2022/12/14 03:28:34;;;;;;;45.57;20.83;;;3.90;89.60;;;;;;6153595;23;20211;-77
2022/12/14 03:31:07;;;;;;;42.77;21.13;;;3.90;89.60;;;;;;6153509;23;20660;-77
2022/12/14 03:33:38;;;;;;;40.17;19.43;;;3.90;89.60;;;;;;6151078;23;20168;-77
2022/12/14 03:36:13;;;;;;;40.67;19.13;;;4.00;89.60;;;;;;6152701;23;20164;-77
2022/12/14 03:38:44;;;;;;;39.43;19.63;;;4.00;89.90;;;;;;6153034;23;20238;-76
2022/12/14 03:41:19;;;;;;;35.40;18.60;;;4.00;90.00;;;;;;6153843;23;20172;-77
2022/12/14 03:44:08;;;;;;;38.70;18.37;;;3.90;90.00;;;;;;6154709;23;20164;-78
2022/12/14 03:46:45;;;;;;;44.50;20.38;;;3.90;90.10;;;;;;6153772;23;20860;-77
2022/12/14 03:49:19;;;;;;;42.57;20.53;;;3.90;90.10;;;;;;6152871;23;20160;-78
2022/12/14 03:52:01;;;;;;;40.97;19.97;;;3.80;90.30;;;;;;6153791;23;20210;-76
2022/12/14 03:54:39;;;;;;;39.83;18.67;;;3.80;90.30;;;;;;6156031;23;20165;-77
2022/12/14 03:57:17;;;;;;;39.93;18.93;;;3.80;90.30;;;;;;6154388;23;20170;-76
2022/12/14 03:59:52;;;;;;;41.03;19.87;;;3.80;90.30;;;;;;6153583;23;20203;-79
2022/12/14 04:02:26;;;;;;;42.53;18.83;;;3.80;90.30;;;;;;6155079;23;20616;-77
2022/12/14 04:05:00;;;;;;;34.20;18.67;;;3.80;90.20;;;;;;6154428;23;20160;-77
2022/12/14 04:07:36;;;;;;;33.40;17.67;;;3.80;90.30;;;;;;6157018;23;20247;-77
2022/12/14 04:21:36;;;;;;;37.47;18.50;;;3.90;90.20;;;;;;6152443;23;20184;-78
2022/12/14 04:26:59;;;;;;;38.80;18.50;;;4.00;90.20;;;;;;6152647;23;20207;-77
2022/12/14 04:32:20;;;;;;;36.57;17.40;;;4.10;90.20;;;;;;6152324;23;20176;-76
2022/12/14 04:34:54;;;;;;;32.20;17.10;;;4.10;90.20;;;;;;6149759;23;20170;-78
2022/12/14 04:37:26;;;;;;;41.63;18.60;;;4.20;90.10;;;;;;6149381;23;20571;-76
2022/12/14 04:39:58;;;;;;;33.77;17.13;;;4.20;90.10;;;;;;6154330;23;20227;-77
2022/12/14 04:42:29;;;;;;;33.43;17.83;;;4.30;90.00;;;;;;6153335;23;20533;-77
2022/12/14 04:45:02;;;;;;;35.60;17.17;;;4.30;90.00;;;;;;6152375;23;20160;-76
2022/12/14 04:47:35;;;;;;;39.50;18.70;;;4.30;90.00;;;;;;6154626;23;20164;-77
2022/12/14 04:50:12;;;;;;;37.33;17.07;;;4.30;90.00;;;;;;6153189;23;20165;-76
2022/12/14 04:52:45;;;;;;;40.93;19.03;;;4.30;89.90;;;;;;6153429;23;20164;-76
2022/12/14 04:55:20;;;;;;;40.10;17.70;;;4.30;89.90;;;;;;6153564;23;20161;-76
2022/12/14 04:57:55;;;;;;;39.63;18.97;;;4.40;89.90;;;;;;6152572;23;20235;-76
2022/12/14 05:00:24;;;;;;;35.73;17.90;;;4.40;90.00;;;;;;6155420;23;20160;-76
2022/12/14 05:03:13;;;;;;;44.17;20.97;;;4.40;90.00;;;;;;6153462;23;20204;-76
2022/12/14 05:05:56;;;;;;;38.83;18.90;;;4.50;90.00;;;;;;6154459;23;20279;-76
2022/12/14 05:08:47;;;;;;;38.03;18.07;;;4.50;89.90;;;;;;6153263;23;20161;-75
2022/12/14 05:11:24;;;;;;;39.07;20.10;;;4.50;89.90;;;;;;6152263;23;20602;-75
2022/12/14 05:14:19;;;;;;;35.47;18.27;;;4.50;89.90;;;;;;6154415;23;20196;-76
2022/12/14 05:16:49;;;;;;;46.07;19.47;;;4.50;89.90;;;;;;6154488;23;20179;-76
2022/12/14 05:19:17;;;;;;;40.63;19.57;;;4.60;89.90;;;;;;6153283;23;20196;-76
2022/12/14 05:21:47;;;;;;;39.30;19.80;;;4.50;89.80;;;;;;6154260;23;20176;-75
2022/12/14 05:24:16;;;;;;;35.03;17.53;;;4.60;89.90;;;;;;6152961;23;20181;-76
2022/12/14 05:26:45;;;;;;;38.27;18.83;;;4.60;89.90;;;;;;6155922;23;20183;-76
2022/12/14 05:29:13;;;;;;;37.23;19.03;;;4.60;89.80;;;;;;6153541;23;20220;-77
2022/12/14 05:31:42;;;;;;;38.97;19.10;;;4.60;89.80;;;;;;6152825;23;20227;-77
2022/12/14 05:34:17;;;;;;;38.30;18.03;;;4.60;89.80;;;;;;6154600;23;20163;-76
2022/12/14 05:36:45;;;;;;;42.20;19.47;;;4.70;89.90;;;;;;6151981;23;20185;-76
2022/12/14 05:39:15;;;;;;;42.57;18.97;;;4.60;89.80;;;;;;6153694;23;20216;-75
2022/12/14 05:41:44;;;;;;;38.33;20.20;;;4.70;89.80;;;;;;6152729;23;20164;-76
2022/12/14 05:44:12;;;;;;;44.13;20.30;;;4.70;89.80;;;;;;6153795;23;20177;-76
2022/12/14 05:46:40;;;;;;;36.63;18.23;;;4.70;89.80;;;;;;6153504;23;20177;-76
2022/12/14 05:49:09;;;;;;;37.03;19.40;;;4.70;89.80;;;;;;6154546;23;20204;-76
2022/12/14 05:51:37;;;;;;;37.50;17.90;;;4.80;89.90;;;;;;6149858;23;20182;-76
2022/12/14 05:54:06;;;;;;;37.13;18.17;;;4.80;89.80;;;;;;6150310;23;20231;-77
2022/12/14 05:56:36;;;;;;;32.80;16.50;;;4.80;89.70;;;;;;6149163;23;20173;-78
2022/12/14 05:59:04;;;;;;;33.63;16.88;;;4.80;89.60;;;;;;6153999;23;20402;-76
2022/12/14 06:01:32;;;;;;;36.60;17.03;;;4.80;89.50;;;;;;6150228;23;20559;-75
2022/12/14 06:04:01;;;;;;;31.93;16.63;;;4.90;89.60;;;;;;6149453;23;20203;-76
2022/12/14 06:06:29;;;;;;;36.93;18.57;;;4.90;89.40;;;;;;6151774;23;20200;-75
2022/12/14 06:08:57;;;;;;;35.50;17.37;;;4.90;89.20;;;;;;6153807;23;20382;-76
2022/12/14 06:11:26;;;;;;;44.73;19.90;;;4.90;89.10;;;;;;6152394;23;20239;-77
2022/12/14 06:13:55;;;;;;;40.63;20.00;;;4.80;88.80;;;;;;6153626;23;20511;-81
2022/12/14 06:16:26;;;;;;;45.13;20.03;;;4.80;88.90;;;;;;6152996;23;20176;-76
2022/12/14 06:18:56;;;;;;;39.83;20.35;;;4.80;88.80;;;;;;6153694;23;20497;-78
2022/12/14 06:21:26;;;;;;;45.37;20.63;;;4.80;89.10;;;;;;6154724;23;20185;-76
2022/12/14 06:23:55;;;;;;;39.40;18.60;;;4.70;88.90;;;;;;6153829;23;20690;-77
2022/12/14 06:26:24;;;;;;;38.67;18.57;;;4.70;88.90;;;;;;6148958;23;20210;-75
2022/12/14 06:28:52;;;;;;;34.33;16.93;;;4.70;89.00;;;;;;6152120;23;20593;-77
2022/12/14 06:31:24;;;;;;;36.87;18.83;;;4.70;88.90;;;;;;6151661;23;20176;-78
2022/12/14 06:33:53;;;;;;;33.80;17.80;;;4.70;88.90;;;;;;6151158;23;20224;-77
2022/12/14 06:36:23;;;;;;;33.37;16.97;;;4.70;89.00;;;;;;6154415;23;20183;-76
2022/12/14 06:38:52;;;;;;;33.60;18.00;;;4.70;89.10;;;;;;6152286;23;20176;-78
2022/12/14 06:41:22;;;;;;;34.90;16.97;;;4.70;89.00;;;;;;6154990;23;20511;-76
2022/12/14 06:43:51;;;;;;;34.70;16.90;;;4.80;88.90;;;;;;6152310;23;20180;-77
2022/12/14 06:46:23;;;;;;;33.77;16.90;;;4.80;88.80;;;;;;6154123;23;20504;-77
2022/12/14 06:48:53;;;;;;;35.73;17.37;;;4.80;88.90;;;;;;6153875;23;20295;-77
2022/12/14 06:51:22;;;;;;;35.60;17.53;;;4.80;88.80;;;;;;6154731;23;20180;-76
2022/12/14 06:53:51;;;;;;;34.23;17.63;;;4.80;88.60;;;;;;6151314;23;20174;-76
2022/12/14 06:56:21;;;;;;;40.20;20.77;;;4.70;88.50;;;;;;6151698;23;20395;-77
2022/12/14 06:58:50;;;;;;;32.03;17.43;;;4.60;89.00;;;;;;6152833;23;20505;-76
2022/12/14 07:01:20;;;;;;;34.63;17.50;;;4.70;88.90;;;;;;6155570;23;20177;-78
2022/12/14 07:03:52;;;;;;;36.60;18.63;;;4.70;89.10;;;;;;6150101;23;20185;-76
2022/12/14 07:06:21;;;;;;;32.47;17.20;;;4.60;90.00;;;;;;6152351;23;20662;-76
2022/12/14 07:08:49;;;;;;;32.77;17.47;;;4.70;89.20;;;;;;6155383;23;20168;-77
2022/12/14 07:11:18;;;;;;;39.33;20.48;;;4.70;88.90;;;;;;6153738;23;20391;-76
2022/12/14 07:13:46;;;;;;;35.63;18.43;;;4.70;89.40;;;;;;6148639;23;20503;-76
2022/12/14 07:16:19;;;;;;;36.73;17.27;;;4.70;89.40;;;;;;6151008;23;20237;-77
2022/12/14 07:18:50;;;;;;;38.40;17.87;;;4.70;89.50;;;;;;6150275;23;20642;-76
2022/12/14 07:21:20;;;;;;;33.60;16.23;;;4.80;89.30;;;;;;6151493;23;20237;-78
2022/12/14 07:23:51;;;;;;;34.87;17.30;;;4.80;88.90;;;;;;6155468;23;20221;-76
2022/12/14 07:26:22;;;;;;;37.95;19.25;;;4.70;88.80;;;;;;6151372;23;20436;-78
2022/12/14 07:28:50;;;;;;;34.20;17.33;;;4.70;88.90;;;;;;6152750;23;20161;-79
2022/12/14 07:31:21;;;;;;;38.40;17.10;;;4.80;89.10;;;;;;6154664;23;20177;-76
2022/12/14 07:33:53;;;;;;;32.47;16.10;;;4.80;89.00;;;;;;6155652;23;20239;-78
2022/12/14 07:36:22;;;;;;;37.73;17.73;;;4.80;88.90;;;;;;6153772;23;20591;-76
2022/12/14 07:38:52;;;;;;;31.13;16.07;;;4.80;89.00;;;;;;6152460;23;20181;-77
2022/12/14 07:41:22;;;;;;;31.97;17.00;;;4.90;89.10;;;;;;6155759;23;20200;-77
2022/12/14 07:43:51;;;;;;;30.73;17.90;;;4.90;88.90;;;;;;6155369;23;20212;-76
2022/12/14 07:46:25;;;;;;;31.87;16.07;;;4.90;88.90;;;;;;6155244;23;20781;-76
2022/12/14 07:48:56;;;;;;;30.27;16.60;;;4.90;88.90;;;;;;6155120;23;20184;-77
2022/12/14 07:51:27;;;;;;;27.10;14.67;;;4.90;88.90;;;;;;6154715;23;20160;-76
2022/12/14 07:53:56;;;;;;;32.13;15.83;;;5.00;89.00;;;;;;6156303;23;20156;-77
2022/12/14 07:56:26;;;;;;;29.00;15.40;;;5.10;89.10;;;;;;6155936;23;20305;-77
2022/12/14 07:58:55;;;;;;;26.63;14.17;;;5.00;88.70;;;;;;6154352;23;20242;-77
2022/12/14 08:01:25;;;;;;;29.67;15.23;;;5.10;88.80;;;;;;6157663;23;20182;-79
2022/12/14 08:03:58;;;;;;;31.13;14.87;;;5.20;88.90;;;;;;6156464;23;20163;-77
2022/12/14 08:06:28;;;;;;;32.70;14.70;;;5.20;89.50;;;;;;6152957;23;20201;-77
2022/12/14 08:08:56;;;;;;;27.60;14.77;;;5.20;88.50;;;;;;6155776;23;20173;-77
2022/12/14 08:11:25;;;;;;;33.97;15.83;;;5.30;88.30;;;;;;6152353;23;20180;-76
2022/12/14 08:13:54;;;;;;;27.67;13.90;;;5.30;88.30;;;;;;6154564;23;20178;-76
2022/12/14 08:16:23;;;;;;;26.47;14.17;;;5.30;88.40;;;;;;6154276;23;20234;-76
2022/12/14 08:18:53;;;;;;;26.73;14.20;;;5.30;88.20;;;;;;6150307;23;20565;-76
2022/12/14 08:21:24;;;;;;;33.00;17.73;;;5.30;88.50;;;;;;6149306;23;20407;-77
2022/12/14 08:23:54;;;;;;;29.00;15.17;;;5.40;89.00;;;;;;6152208;23;20160;-76
2022/12/14 08:26:24;;;;;;;26.53;14.13;;;5.50;89.10;;;;;;6152909;23;20174;-76
2022/12/14 08:29:00;;;;;;;29.43;14.97;;;5.50;89.00;;;;;;6152767;23;20160;-77
2022/12/14 08:31:29;;;;;;;29.47;15.07;;;5.60;88.30;;;;;;6152345;23;20255;-78
2022/12/14 08:33:59;;;;;;;28.97;13.53;;;5.70;88.10;;;;;;6151732;23;20188;-75
2022/12/14 08:36:31;;;;;;;25.07;14.13;;;5.70;87.80;;;;;;6153801;23;20198;-76
2022/12/14 08:39:01;;;;;;;28.10;13.30;;;5.80;87.90;;;;;;6152473;23;20238;-76
2022/12/14 08:41:32;;;;;;;24.83;13.43;;;5.90;87.50;;;;;;6151613;23;20687;-76
2022/12/14 08:44:02;;;;;;;27.57;14.17;;;5.90;86.90;;;;;;6152323;23;20164;-76
2022/12/14 08:46:32;;;;;;;25.00;13.30;;;5.90;86.90;;;;;;6153372;23;20185;-76
2022/12/14 08:49:01;;;;;;;30.87;13.67;;;6.10;87.00;;;;;;6154053;23;20179;-79
2022/12/14 08:51:30;;;;;;;26.97;13.63;;;6.10;86.50;;;;;;6154423;23;20183;-78
2022/12/14 08:53:59;;;;;;;25.00;13.23;;;6.20;85.60;;;;;;6154289;23;20211;-76
2022/12/14 08:56:28;;;;;;;27.23;13.23;;;6.20;85.80;;;;;;6155815;23;20265;-77
2022/12/14 08:58:57;;;;;;;27.53;13.37;;;6.30;85.60;;;;;;6155567;23;20207;-76
2022/12/14 09:01:27;;;;;;;26.47;13.00;;;6.40;85.80;;;;;;6155732;23;20230;-76
2022/12/14 09:04:06;;;;;;;26.27;12.97;;;6.40;85.00;;;;;;6155364;23;20168;-77
2022/12/14 09:06:38;;;;;;;22.30;12.50;;;6.40;83.90;;;;;;6155889;23;20204;-77
2022/12/14 09:09:07;;;;;;;25.27;12.73;;;6.40;84.00;;;;;;6152507;23;20609;-77
2022/12/14 09:11:43;;;;;;;27.50;12.70;;;6.50;84.30;;;;;;6152878;23;20594;-76
2022/12/14 09:14:12;;;;;;;25.83;12.93;;;6.50;83.90;;;;;;6154912;23;20227;-77
2022/12/14 09:16:40;;;;;;;28.00;13.50;;;6.60;83.70;;;;;;6153408;23;20251;-79
2022/12/14 09:19:09;;;;;;;20.83;10.77;;;6.60;83.90;;;;;;6155601;23;20556;-78
2022/12/14 09:21:39;;;;;;;25.63;12.83;;;6.70;83.70;;;;;;6156663;23;20445;-77
2022/12/14 09:24:07;;;;;;;24.30;12.83;;;6.70;83.60;;;;;;6153402;23;20183;-78
2022/12/14 09:26:36;;;;;;;28.53;13.03;;;6.80;83.60;;;;;;6156017;23;20184;-76
2022/12/14 09:29:04;;;;;;;23.87;12.03;;;6.80;83.30;;;;;;6156560;23;20215;-77
2022/12/14 09:31:32;;;;;;;24.73;12.23;;;6.90;83.00;;;;;;6157620;23;20254;-76
2022/12/14 09:34:01;;;;;;;29.17;13.33;;;6.90;82.90;;;;;;6154652;23;20611;-78
2022/12/14 09:36:29;;;;;;;24.60;12.70;;;7.00;82.90;;;;;;6152588;23;20667;-78
2022/12/14 09:38:59;;;;;;;28.80;12.77;;;7.00;82.50;;;;;;6152682;23;20237;-77
2022/12/14 09:41:49;;;;;;;22.43;11.37;;;7.10;82.90;;;;;;6153135;23;20732;-78
2022/12/14 09:44:31;;;;;;;22.10;11.43;;;7.10;83.20;;;;;;6153820;23;20161;-78
2022/12/14 09:47:06;;;;;;;26.73;12.13;;;7.10;82.30;;;;;;6154986;23;20164;-78
2022/12/14 09:49:41;;;;;;;25.53;11.63;;;7.10;82.30;;;;;;6154449;23;20187;-78
2022/12/14 09:52:15;;;;;;;22.70;11.43;;;7.20;81.80;;;;;;6154296;23;20160;-80
2022/12/14 09:54:47;;;;;;;24.70;11.73;;;7.20;81.90;;;;;;6155121;23;20500;-76
2022/12/14 09:57:25;;;;;;;21.87;11.73;;;7.20;81.20;;;;;;6156351;23;20161;-76
2022/12/14 09:59:54;;;;;;;23.67;12.43;;;7.20;81.60;;;;;;6155956;23;20227;-76
2022/12/14 10:02:37;;;;;;;24.00;11.23;;;7.20;81.60;;;;;;6153708;23;20172;-79
2022/12/14 10:05:33;;;;;;;20.67;11.53;;;7.20;81.00;;;;;;6156298;23;20168;-76
2022/12/14 10:08:08;;;;;;;27.60;14.30;;;7.20;80.80;;;;;;6152696;23;20445;-78
2022/12/14 10:10:47;;;;;;;21.60;11.87;;;7.20;81.70;;;;;;6152762;23;20210;-77
2022/12/14 10:13:27;;;;;;;25.27;13.67;;;7.30;81.90;;;;;;6154495;23;20161;-78
2022/12/14 10:16:10;;;;;;;28.27;13.10;;;7.30;81.90;;;;;;6154631;23;20157;-77
2022/12/14 10:19:01;;;;;;;23.47;11.83;;;7.30;81.60;;;;;;6153367;23;20199;-78
2022/12/14 10:21:49;;;;;;;27.10;12.00;;;7.40;81.30;;;;;;6156822;23;20271;-78
2022/12/14 10:24:22;;;;;;;22.77;11.87;;;7.40;81.30;;;;;;6155256;23;20161;-77
2022/12/14 10:26:54;;;;;;;22.57;12.83;;;7.50;81.80;;;;;;6154174;23;20168;-76
2022/12/14 10:29:30;;;;;;;23.40;12.73;;;7.50;81.80;;;;;;6153514;23;20222;-76
2022/12/14 10:32:13;;;;;;;24.75;13.50;;;7.60;81.80;;;;;;6155327;23;20382;-76
2022/12/14 10:34:43;;;;;;;20.43;11.37;;;7.60;82.10;;;;;;6152623;23;20211;-76
2022/12/14 10:37:24;;;;;;;26.43;11.97;;;7.70;81.70;;;;;;6155515;23;20176;-77
2022/12/14 10:40:15;;;;;;;23.67;11.93;;;7.70;81.70;;;;;;6151024;23;20235;-77
2022/12/14 10:43:17;;;;;;;27.43;11.87;;;7.80;81.80;;;;;;6152017;23;20164;-77
2022/12/14 10:45:51;;;;;;;22.20;11.40;;;7.80;81.30;;;;;;6150603;23;20242;-76
2022/12/14 10:48:32;;;;;;;25.40;11.67;;;7.80;80.90;;;;;;6150067;23;20920;-77
2022/12/14 10:51:06;;;;;;;23.97;12.17;;;7.80;81.00;;;;;;6152543;23;20196;-77
2022/12/14 10:53:39;;;;;;;21.13;11.20;;;7.80;80.20;;;;;;6154034;23;20215;-77
2022/12/14 10:56:16;;;;;;;23.20;11.50;;;7.80;80.20;;;;;;6153649;23;20214;-77
2022/12/14 10:59:24;;;;;;;20.27;11.67;;;7.80;80.50;;;;;;6153265;23;20182;-77
2022/12/14 11:01:57;;;;;;;19.90;11.93;;;7.70;80.00;;;;;;6154144;23;20196;-78
2022/12/14 11:04:32;;;;;;;24.67;12.23;;;7.60;79.90;;;;;;6154261;23;20602;-77
2022/12/14 11:07:03;;;;;;;22.50;12.27;;;7.60;79.90;;;;;;6156438;23;20206;-77
2022/12/14 11:09:32;;;;;;;22.97;11.60;;;7.60;80.10;;;;;;6152504;23;20161;-77
2022/12/14 11:12:04;;;;;;;23.93;11.83;;;7.50;79.90;;;;;;6152946;23;20550;-78
2022/12/14 11:14:35;;;;;;;27.63;13.07;;;7.60;80.50;;;;;;6147295;23;20239;-78
2022/12/14 11:17:04;;;;;;;26.17;12.30;;;7.60;80.70;;;;;;6151220;23;20160;-77
2022/12/14 11:19:33;;;;;;;26.27;12.17;;;7.50;80.80;;;;;;6149428;23;20283;-78
2022/12/14 11:22:13;;;;;;;23.63;11.13;;;7.60;81.10;;;;;;6153104;23;20193;-77
2022/12/14 11:24:50;;;;;;;22.13;11.77;;;7.60;81.10;;;;;;6149301;23;20165;-77
2022/12/14 11:27:21;;;;;;;24.80;12.90;;;7.50;81.00;;;;;;6152920;23;20177;-77
2022/12/14 11:29:51;;;;;;;25.73;12.73;;;7.50;81.20;;;;;;6155201;23;20231;-77
2022/12/14 11:32:23;;;;;;;26.37;12.43;;;7.60;81.50;;;;;;6156958;23;20163;-79
2022/12/14 11:34:59;;;;;;;21.03;12.17;;;7.60;81.60;;;;;;6154958;23;20164;-78
2022/12/14 11:37:29;;;;;;;23.77;12.37;;;7.60;81.50;;;;;;6150387;23;20160;-77
2022/12/14 11:40:00;;;;;;;26.47;11.90;;;7.50;81.50;;;;;;6152015;23;20160;-77
2022/12/14 11:42:29;;;;;;;25.27;12.13;;;7.60;81.70;;;;;;6151699;23;20567;-78
2022/12/14 11:45:29;;;;;;;25.50;12.50;;;7.50;81.80;;;;;;6151625;23;20177;-79
2022/12/14 11:48:18;;;;;;;22.50;11.83;;;7.40;81.90;;;;;;6153516;23;20630;-77
2022/12/14 11:50:49;;;;;;;21.60;11.37;;;7.40;82.20;;;;;;6152358;23;20172;-77
2022/12/14 11:53:19;;;;;;;23.43;12.73;;;7.50;82.50;;;;;;6152122;23;20219;-77
2022/12/14 11:55:52;;;;;;;22.73;12.00;;;7.40;82.50;;;;;;6154140;23;20219;-78
2022/12/14 11:58:25;;;;;;;22.67;11.23;;;7.40;82.70;;;;;;6155041;23;20164;-79
2022/12/14 12:01:00;;;;;;;22.87;11.77;;;7.40;83.60;;;;;;6150361;23;20164;-80
2022/12/14 12:03:41;;;;;;;21.83;11.27;;;7.40;83.10;;;;;;6151973;23;20211;-76
2022/12/14 12:06:13;;;;;;;28.37;11.03;;;7.40;83.00;;;;;;6150444;23;21063;-79
2022/12/14 12:08:43;;;;;;;21.77;10.63;;;7.50;83.10;;;;;;6152926;23;20160;-77
2022/12/14 12:11:18;;;;;;;24.97;11.00;;;7.50;83.20;;;;;;6153458;23;20164;-77
2022/12/14 12:14:30;;;;;;;23.40;11.97;;;7.50;83.30;;;;;;6153674;23;20664;-78
2022/12/14 12:17:00;;;;;;;24.77;11.30;;;7.50;83.20;;;;;;6147612;23;20227;-77
2022/12/14 12:19:33;;;;;;;22.53;11.53;;;7.50;83.30;;;;;;6153119;23;20177;-77
2022/12/14 12:22:30;;;;;;;22.43;12.30;;;7.50;83.40;;;;;;6146701;23;20181;-77
2022/12/14 12:27:46;;;;;;;25.33;12.60;;;7.50;83.70;;;;;;6168130;23;20703;-79
2022/12/14 12:30:27;;;;;;;21.57;11.57;;;7.50;83.70;;;;;;6181998;23;20619;-80
2022/12/14 12:33:02;;;;;;;27.00;13.30;;;7.40;84.10;;;;;;6184148;23;20159;-77
2022/12/14 12:35:36;;;;;;;26.43;12.47;;;7.40;84.40;;;;;;6180827;23;20214;-78
2022/12/14 12:38:12;;;;;;;25.20;12.63;;;7.40;84.40;;;;;;6181697;23;20210;-80
2022/12/14 12:40:52;;;;;;;25.80;13.13;;;7.30;84.70;;;;;;6173537;23;20160;-79
2022/12/14 12:43:26;;;;;;;26.30;13.27;;;7.30;84.80;;;;;;6181666;23;20743;-78
2022/12/14 12:45:59;;;;;;;22.07;12.83;;;7.30;85.10;;;;;;6179856;23;20223;-80
2022/12/14 12:48:35;;;;;;;24.87;12.87;;;7.20;85.50;;;;;;6178727;23;20159;-79
2022/12/14 12:51:07;;;;;;;26.90;13.77;;;7.20;85.60;;;;;;6178318;23;20210;-81
2022/12/14 12:53:44;;;;;;;29.97;13.57;;;7.20;85.80;;;;;;6178523;23;20587;-80
2022/12/14 12:56:17;;;;;;;27.23;13.23;;;7.20;86.10;;;;;;6183227;23;20666;-81
2022/12/14 12:58:48;;;;;;;25.63;12.23;;;7.10;86.30;;;;;;6181081;23;20541;-80
2022/12/14 13:01:26;;;;;;;28.27;13.37;;;7.10;86.10;;;;;;6182780;23;20246;-81
2022/12/14 13:03:59;;;;;;;28.03;13.50;;;7.00;86.60;;;;;;6181352;23;20191;-81
2022/12/14 13:06:31;;;;;;;23.07;12.37;;;7.00;86.50;;;;;;6181436;23;20160;-81
2022/12/14 13:09:07;;;;;;;22.17;12.17;;;7.00;86.60;;;;;;6179674;23;20167;-80
2022/12/14 13:11:38;;;;;;;25.57;13.40;;;7.00;86.50;;;;;;6181474;23;20160;-80
2022/12/14 13:14:17;;;;;;;27.10;13.33;;;7.00;86.70;;;;;;6181093;23;20277;-80
2022/12/14 13:16:47;;;;;;;26.77;12.70;;;6.90;87.10;;;;;;6180253;23;20203;-80
2022/12/14 13:19:23;;;;;;;28.43;14.63;;;6.80;87.30;;;;;;6182001;23;20175;-81
2022/12/14 13:22:13;;;;;;;22.50;12.00;;;6.80;87.80;;;;;;6182521;23;20281;-79
2022/12/14 13:24:46;;;;;;;25.50;12.40;;;6.70;87.90;;;;;;6181560;23;20485;-80
2022/12/14 13:27:43;;;;;;;28.73;13.80;;;6.70;88.00;;;;;;6181619;23;20554;-80
2022/12/14 13:30:22;;;;;;;27.57;13.60;;;6.60;88.20;;;;;;6177240;23;20166;-81